Thunder radar more information blitzortung!


Radar de pluja more information rain snow radar


Visita la nostra xarxa de llocs de meteo:

Template documentation
and downloads

And another site



No particular awareness of the weather is required.    There are no Weather-warnings

Pagina Historial Weather Underground text

Diari Resum Juliol 14, 2017 Unitats:  Mètric    Imperial   Tant
« Previous Dia
SegĂźent Dia »
Diari Setmana Mensual Anual Personalitzada
  Maxima: Minima: Media:
Temperatura: -17.8 °C -4.5 °C -2.9 °C
Punt de rosada: -17.8 °C -7.6 °C -6.9 °C
Humitat: Humidity % 48 % 65 %
Wind Speed: 0 km/h 0 km/h 10.8 km/h
RĂ fegues de vent: 0 km/h - -
Vent:- - SSE
Pression baro: 0 hPa 34327.3 hPa -
Precipitacions: 0 mm    
Historical Graphs
 
 
Dades de taula per Juliol 14, 2017
Temps Temperatura Punt de rosada Pression baro Vent Wind Speed RĂ fegues de vent Humitat Rainfall Rate (Hourly)
-17.8 °C -17.8 °C 0 hPa Calm     Humidity % 0 mm
00:01 -4.2 °C -6.4 °C 34428.8 hPa East 9 km/h 9 km/h 78 % 0 mm
00:05 -4.3 °C -6.5 °C 34395 hPa Calm   5.1 km/h 79 % 0 mm
00:06 -4.2 °C -6.4 °C 34428.8 hPa ESE 9.8 km/h 9.8 km/h 78 % 0 mm
00:11 -4.2 °C -6.3 °C 34428.8 hPa East 9 km/h 9 km/h 79 % 0 mm
00:15 -4.3 °C -6.3 °C 34395 hPa SW 2.6 km/h 5.1 km/h 80 % 0 mm
00:25 -4.4 °C -6.4 °C 34395 hPa SW 2.6 km/h 2.6 km/h 80 % 0 mm
00:35 -4.4 °C -6.4 °C 34395 hPa Calm   2.6 km/h 80 % 0 mm
00:45 -4.4 °C -6.4 °C 34395 hPa Calm     80 % 0 mm
00:55 -4.4 °C -6.4 °C 34395 hPa Calm   2.6 km/h 80 % 0 mm
01:05 -4.4 °C -6.4 °C 34395 hPa NW 2.6 km/h 5.1 km/h 80 % 0 mm
01:15 -4.4 °C -6.4 °C 34395 hPa Calm   2.6 km/h 80 % 0 mm
01:25 -4.4 °C -6.4 °C 34395 hPa Calm   2.6 km/h 80 % 0 mm
01:35 -4.4 °C -6.4 °C 34395 hPa Calm   5.1 km/h 80 % 0 mm
01:45 -4.4 °C -6.5 °C 34395 hPa Calm     80 % 0 mm
01:55 -4.4 °C -6.5 °C 34395 hPa SW 2.6 km/h 5.1 km/h 80 % 0 mm
02:05 -4.4 °C -6.4 °C 34428.8 hPa SW 2.6 km/h 2.6 km/h 80 % 0 mm
02:15 -4.4 °C -6.5 °C 34428.8 hPa WSW 5.1 km/h 10.3 km/h 80 % 0 mm
02:25 -4.4 °C -6.5 °C 34428.8 hPa SW 5.1 km/h 7.7 km/h 80 % 0 mm
02:35 -4.5 °C -6.6 °C 34428.8 hPa SW 7.7 km/h 10.3 km/h 80 % 0 mm
02:45 -4.4 °C -6.5 °C 34428.8 hPa SW 5.1 km/h 5.1 km/h 80 % 0 mm
02:55 -4.4 °C -6.3 °C 34428.8 hPa SW 5.1 km/h 10.3 km/h 81 % 0 mm
03:05 -4.4 °C -6.3 °C 34428.8 hPa SW 5.1 km/h 7.7 km/h 81 % 0 mm
03:15 -4.3 °C -6.3 °C 34428.8 hPa WSW 2.6 km/h 7.7 km/h 80 % 0 mm
03:25 -4.2 °C -6.2 °C 34428.8 hPa Calm   7.7 km/h 80 % 0 mm
03:35 -4.1 °C -6.2 °C 34462.7 hPa SW 5.1 km/h 7.7 km/h 79 % 0 mm
03:45 -4 °C -6.2 °C 34462.7 hPa SW 7.7 km/h 12.9 km/h 79 % 0 mm
03:55 -3.9 °C -6.1 °C 34462.7 hPa SW 2.6 km/h 7.7 km/h 79 % 0 mm
04:05 -3.8 °C -6.1 °C 34462.7 hPa Calm   10.3 km/h 78 % 0 mm
04:15 -3.6 °C -6 °C 34428.8 hPa SW 2.6 km/h 5.1 km/h 77 % 0 mm
04:25 -3.6 °C -6.1 °C 34428.8 hPa SW 5.1 km/h 7.7 km/h 76 % 0 mm
04:35 -3.4 °C -6 °C 34462.7 hPa SSW 5.1 km/h 7.7 km/h 76 % 0 mm
04:45 -3.4 °C -6.1 °C 34462.7 hPa South 5.1 km/h 7.7 km/h 75 % 0 mm
04:55 -3.2 °C -5.8 °C 34462.7 hPa SSW 2.6 km/h 10.3 km/h 75 % 0 mm
05:05 -3.1 °C -6.1 °C 34462.7 hPa SW 5.1 km/h 10.3 km/h 72 % 0 mm
05:15 -2.9 °C -6.2 °C 34462.7 hPa SSW 7.7 km/h 7.7 km/h 70 % 0 mm
10:23 -2.9 °C -6.3 °C 34462.7 hPa ESE 6.3 km/h 8.5 km/h 69 % 0 mm
10:28 -3.2 °C -6.6 °C 34462.7 hPa ESE 12.7 km/h 12.7 km/h 69 % 0 mm
10:33 -3.4 °C -6.8 °C 34462.7 hPa NE 17.9 km/h 17.9 km/h 69 % 0 mm
10:38 -3.5 °C -6.9 °C 34462.7 hPa ENE 11.9 km/h 11.9 km/h 69 % 0 mm
10:43 -3.6 °C -7.1 °C 34462.7 hPa ENE 15 km/h 15 km/h 68 % 0 mm
10:48 -3.7 °C -7.3 °C 34462.7 hPa ENE 17.9 km/h 17.9 km/h 68 % 0 mm
10:53 -3.7 °C -7.2 °C 34462.7 hPa ESE 15 km/h 15 km/h 68 % 0 mm
10:58 -3.6 °C -7.1 °C 34462.7 hPa North 15 km/h 15 km/h 68 % 0 mm
11:03 -3.6 °C -7.1 °C 34462.7 hPa ENE 17.9 km/h 17.9 km/h 68 % 0 mm
11:08 -3.5 °C -7.1 °C 34462.7 hPa ESE 20.9 km/h 20.9 km/h 68 % 0 mm
11:13 -3.6 °C -7.1 °C 34462.7 hPa ENE 20.9 km/h 20.9 km/h 68 % 0 mm
11:18 -3.7 °C -7.2 °C 34462.7 hPa ENE 15 km/h 15 km/h 68 % 0 mm
11:23 -3.6 °C -7 °C 34428.8 hPa East 15 km/h 15 km/h 69 % 0 mm
11:28 -3.6 °C -7.1 °C 34428.8 hPa ESE 16.1 km/h 16.1 km/h 68 % 0 mm
11:33 -3.6 °C -7 °C 34428.8 hPa ENE 11.9 km/h 11.9 km/h 69 % 0 mm
11:38 -3.6 °C -7 °C 34428.8 hPa ENE 15.6 km/h 15.6 km/h 69 % 0 mm
11:43 -3.6 °C -7 °C 34428.8 hPa ESE 15 km/h 15 km/h 69 % 0 mm
11:48 -3.6 °C -7 °C 34428.8 hPa SSE 17.9 km/h 17.9 km/h 69 % 0 mm
11:53 -3.6 °C -6.8 °C 34428.8 hPa SE 6 km/h 6 km/h 70 % 0 mm
11:58 -3.4 °C -6.7 °C 34428.8 hPa SSE 9 km/h 9 km/h 70 % 0 mm
12:03 -3.4 °C -6.7 °C 34428.8 hPa ESE 10.3 km/h 10.3 km/h 70 % 0 mm
12:08 -3.4 °C -6.7 °C 34428.8 hPa ENE 20.9 km/h 20.9 km/h 70 % 0 mm
12:13 -3.4 °C -6.7 °C 34428.8 hPa ESE 11.9 km/h 11.9 km/h 70 % 0 mm
12:18 -3.4 °C -6.7 °C 34428.8 hPa ESE 20.9 km/h 20.9 km/h 70 % 0 mm
12:23 -3.3 °C -6.6 °C 34428.8 hPa ENE 15 km/h 15 km/h 70 % 0 mm
12:28 -3.3 °C -6.6 °C 34428.8 hPa ESE 15 km/h 15 km/h 70 % 0 mm
12:33 -3.2 °C -6.5 °C 34428.8 hPa ENE 17.9 km/h 17.9 km/h 70 % 0 mm
12:38 -3.3 °C -6.6 °C 34428.8 hPa ESE 6 km/h 6 km/h 70 % 0 mm
12:43 -3 °C -6.3 °C 34428.8 hPa SSW 9 km/h 9 km/h 70 % 0 mm
12:48 -2.9 °C -6.3 °C 34428.8 hPa East 6 km/h 6 km/h 69 % 0 mm
12:53 -2.9 °C -6.5 °C 34428.8 hPa ESE 15 km/h 15 km/h 68 % 0 mm
12:58 -3.1 °C -6.5 °C 34428.8 hPa NE 6 km/h 6 km/h 69 % 0 mm
13:03 -3 °C -6.4 °C 34428.8 hPa ENE 11.9 km/h 11.9 km/h 69 % 0 mm
13:08 -2.9 °C -6.3 °C 34428.8 hPa East 11.9 km/h 11.9 km/h 69 % 0 mm
13:13 -2.9 °C -6.3 °C 34428.8 hPa SE 6 km/h 6 km/h 69 % 0 mm
13:18 -2.8 °C -6.3 °C 34428.8 hPa ENE 9 km/h 9 km/h 68 % 0 mm
13:23 -2.8 °C -6.3 °C 34428.8 hPa ENE 3.1 km/h 3.1 km/h 68 % 0 mm
13:28 -2.7 °C -6.2 °C 34428.8 hPa SE 3.7 km/h   68 % 0 mm
13:33 -2.6 °C -6.3 °C 34428.8 hPa NW 6 km/h 6 km/h 67 % 0 mm
13:38 -2.3 °C -6.6 °C 34462.7 hPa WSW 11.9 km/h 11.9 km/h 63 % 0 mm
13:43 -1.8 °C -6.3 °C 34462.7 hPa SW 6 km/h 6 km/h 62 % 0 mm
13:48 -1.5 °C -6.3 °C 34462.7 hPa SW 6 km/h 6.3 km/h 60 % 0 mm
13:53 -1.3 °C -6.3 °C 34428.8 hPa SW 17.9 km/h 17.9 km/h 59 % 0 mm
13:58 -1.2 °C -6.4 °C 34428.8 hPa WSW 23.3 km/h 23.3 km/h 57 % 0 mm
14:03 -1.1 °C -6.5 °C 34428.8 hPa South 23.8 km/h 23.8 km/h 56 % 0 mm
14:08 -0.8 °C -6.6 °C 34395 hPa SW 15 km/h 15 km/h 54 % 0 mm
14:13 -0.9 °C -6.6 °C 34395 hPa SW 17.9 km/h 17.9 km/h 54 % 0 mm
14:18 -0.8 °C -6.9 °C 34395 hPa SSE 11.1 km/h 11.1 km/h 52 % 0 mm
14:23 -0.4 °C -6.7 °C 34395 hPa SW 20.9 km/h 20.9 km/h 51 % 0 mm
14:28 -0.7 °C -6.8 °C 34395 hPa NW 15 km/h 15 km/h 52 % 0 mm
14:33 -0.4 °C -6.9 °C 34395 hPa SW 15 km/h 15 km/h 50 % 0 mm
14:38 -0.2 °C -6.7 °C 34395 hPa West 12.7 km/h 12.7 km/h 50 % 0 mm
14:43 -0.8 °C -7.2 °C 34395 hPa SSW 20.9 km/h 20.9 km/h 50 % 0 mm
14:48 -0.7 °C -7.2 °C 34395 hPa South 15 km/h 15 km/h 50 % 0 mm
14:53 -0.8 °C -7.2 °C 34361.1 hPa SW 19.6 km/h 19.6 km/h 50 % 0 mm
14:58 -0.9 °C -7.2 °C 34361.1 hPa South 20.9 km/h 20.9 km/h 51 % 0 mm
15:03 -0.8 °C -7.2 °C 34361.1 hPa SSE 9 km/h 9 km/h 50 % 0 mm
15:08 -0.9 °C -7.4 °C 34361.1 hPa West 23.8 km/h 23.8 km/h 50 % 0 mm
15:13 -0.8 °C -7.1 °C 34361.1 hPa SW 26.9 km/h 26.9 km/h 51 % 0 mm
15:18 -0.5 °C -7 °C 34361.1 hPa SSW 23.8 km/h 23.8 km/h 50 % 0 mm
15:23 -0.4 °C -7.1 °C 34361.1 hPa West 20.9 km/h 20.9 km/h 49 % 0 mm
15:28 -0.4 °C -7.1 °C 34361.1 hPa SSW 23.8 km/h 23.8 km/h 49 % 0 mm
15:33 -0.2 °C -6.8 °C 34361.1 hPa West 11.9 km/h 11.9 km/h 49 % 0 mm
15:35 -0.1 °C -7 °C 34361.1 hPa SW 9 km/h 9 km/h 48 % 0 mm
15:40 -0.5 °C -7.3 °C 34361.1 hPa SW 15.6 km/h 33.6 km/h 48 % 0 mm
15:45 -0.4 °C -7.1 °C 34361.1 hPa SW 7.7 km/h 18.2 km/h 49 % 0 mm
15:50 -0.7 °C -7.3 °C 34361.1 hPa SSW 7.7 km/h 25.9 km/h 49 % 0 mm
15:55 -0.9 °C -7.6 °C 34361.1 hPa South 7.7 km/h 20.8 km/h 49 % 0 mm
16:00 -0.9 °C -7.3 °C 34361.1 hPa South 5.1 km/h 12.9 km/h 50 % 0 mm
16:05 -0.8 °C -7.1 °C 34361.1 hPa South 7.7 km/h 18.2 km/h 51 % 0 mm
16:10 -1.2 °C -7.4 °C 34361.1 hPa South 12.9 km/h 25.9 km/h 51 % 0 mm
16:15 -1.2 °C -7.4 °C 34361.1 hPa SSW 7.7 km/h 15.6 km/h 51 % 0 mm
16:20 -1.1 °C -7.3 °C 34361.1 hPa SW 12.9 km/h 15.6 km/h 51 % 0 mm
16:25 -1 °C -7.3 °C 34361.1 hPa SW 7.7 km/h 18.2 km/h 51 % 0 mm
16:30 -0.6 °C -6.9 °C 34361.1 hPa SSW 5.1 km/h 15.6 km/h 51 % 0 mm
16:35 -0.6 °C -7.1 °C 34361.1 hPa SW 15.6 km/h 23.3 km/h 50 % 0 mm
16:40 -0.7 °C -7.1 °C 34361.1 hPa SW 7.7 km/h 23.3 km/h 50 % 0 mm
16:45 -0.7 °C -7.2 °C 34361.1 hPa SW 12.9 km/h 23.3 km/h 50 % 0 mm
16:50 -1.2 °C -7.4 °C 34361.1 hPa SW 15 km/h 15 km/h 51 % 0 mm
16:55 -1.1 °C -7.3 °C 34361.1 hPa SSE 12.7 km/h 12.7 km/h 51 % 0 mm
17:00 -1.1 °C -7.3 °C 34361.1 hPa West 9 km/h 9 km/h 51 % 0 mm
17:02 -1.1 °C -7.3 °C 34361.1 hPa West 17.9 km/h 17.9 km/h 51 % 0 mm
17:07 -1.2 °C -7.4 °C 34361.1 hPa SSW 15 km/h 15 km/h 51 % 0 mm
17:12 -0.9 °C -7.2 °C 34361.1 hPa South 15 km/h 15 km/h 51 % 0 mm
17:17 -0.9 °C -7.2 °C 34361.1 hPa South 17.9 km/h 17.9 km/h 51 % 0 mm
17:22 -0.9 °C -7.2 °C 34361.1 hPa SSW 20.9 km/h 20.9 km/h 51 % 0 mm
17:27 -1.2 °C -7.3 °C 34327.3 hPa SSW 15 km/h 15 km/h 52 % 0 mm
17:32 -1.4 °C -7.4 °C 34327.3 hPa WSW 15 km/h 15 km/h 52 % 0 mm
17:37 -1.2 °C -7.2 °C 34327.3 hPa SW 20.9 km/h 20.9 km/h 52 % 0 mm
17:42 -0.9 °C -7 °C 34327.3 hPa SW 11.9 km/h 11.9 km/h 52 % 0 mm
17:47 -0.8 °C -6.9 °C 34327.3 hPa SSW 16.1 km/h 16.1 km/h 52 % 0 mm
17:52 -1.3 °C -7.2 °C 34327.3 hPa SSW 26.9 km/h 26.9 km/h 53 % 0 mm
17:57 -1.3 °C -7.2 °C 34361.1 hPa South 16.1 km/h 16.1 km/h 53 % 0 mm
18:02 -1.4 °C -7.3 °C 34361.1 hPa SSW 20.9 km/h 20.9 km/h 53 % 0 mm
18:07 -1.3 °C -7.1 °C 34361.1 hPa SSW 11.9 km/h 11.9 km/h 54 % 0 mm
18:12 -1.2 °C -6.9 °C 34361.1 hPa SW 11.9 km/h 11.9 km/h 54 % 0 mm
18:17 -1.2 °C -6.9 °C 34361.1 hPa SW 9 km/h 9 km/h 54 % 0 mm
18:22 -0.9 °C -6.8 °C 34361.1 hPa SSW 15 km/h 15 km/h 53 % 0 mm
18:27 -1.1 °C -7 °C 34327.3 hPa South 20.9 km/h 20.9 km/h 53 % 0 mm
18:32 -1.3 °C -7 °C 34327.3 hPa South 20.9 km/h 20.9 km/h 54 % 0 mm
18:37 -1.6 °C -7.3 °C 34327.3 hPa ENE 15 km/h 15 km/h 54 % 0 mm
18:42 -1.7 °C -7.2 °C 34361.1 hPa WSW 11.9 km/h 11.9 km/h 55 % 0 mm
18:47 -1.7 °C -7.1 °C 34361.1 hPa SW 14.5 km/h 14.5 km/h 56 % 0 mm
18:52 -1.9 °C -7.3 °C 34361.1 hPa ESE 15 km/h 15 km/h 56 % 0 mm
18:57 -2.2 °C -7.3 °C 34361.1 hPa ESE 6 km/h 6 km/h 57 % 0 mm
19:02 -2.3 °C -7.3 °C 34361.1 hPa ESE 11.9 km/h 11.9 km/h 58 % 0 mm
19:07 -2.8 °C -7.4 °C 34361.1 hPa ESE 15 km/h 15 km/h 60 % 0 mm
19:12 -3.1 °C -7.4 °C 34361.1 hPa SSE 15 km/h 15 km/h 62 % 0 mm
19:17 -2.8 °C -7.4 °C 34361.1 hPa South 11.9 km/h 11.9 km/h 60 % 0 mm
19:22 -2.7 °C -7.4 °C 34361.1 hPa SSE 9 km/h 9 km/h 60 % 0 mm
19:27 -2.9 °C -7.4 °C 34361.1 hPa West 9 km/h 9 km/h 61 % 0 mm
19:32 -2.9 °C -7.3 °C 34361.1 hPa West 9 km/h 9 km/h 62 % 0 mm
19:37 -2.8 °C -7.2 °C 34361.1 hPa SSE 11.9 km/h 11.9 km/h 62 % 0 mm
19:42 -2.8 °C -7.2 °C 34361.1 hPa South 5.1 km/h   62 % 0 mm
19:47 -2.9 °C -7.2 °C 34361.1 hPa ESE 9.8 km/h 9.8 km/h 63 % 0 mm
19:52 -3.2 °C -7.4 °C 34361.1 hPa WSW 2.3 km/h   63 % 0 mm
19:57 -3.3 °C -7.4 °C 34361.1 hPa East 11.9 km/h 11.9 km/h 64 % 0 mm
20:02 -3.6 °C -7.4 °C 34361.1 hPa East 11.9 km/h 11.9 km/h 65 % 0 mm
20:07 -3.6 °C -7.4 °C 34361.1 hPa East 15 km/h 15 km/h 66 % 0 mm
20:12 -3.7 °C -7.3 °C 34361.1 hPa East 15 km/h 15 km/h 67 % 0 mm
20:17 -3.8 °C -7.4 °C 34361.1 hPa East 15 km/h 15 km/h 67 % 0 mm
20:22 -3.8 °C -7.4 °C 34361.1 hPa East 11.9 km/h 11.9 km/h 67 % 0 mm
20:27 -3.8 °C -7.3 °C 34361.1 hPa WNW 15 km/h 15 km/h 68 % 0 mm
20:32 -3.9 °C -7.4 °C 34361.1 hPa ESE 15 km/h 15 km/h 68 % 0 mm
20:37 -4 °C -7.1 °C 34395 hPa ENE 15 km/h 15 km/h 71 % 0 mm
20:42 -4 °C -7.3 °C 34395 hPa SSE 11.9 km/h 11.9 km/h 70 % 0 mm
20:47 -4.1 °C -7.3 °C 34395 hPa ENE 11.9 km/h 11.9 km/h 70 % 0 mm
20:52 -4.1 °C -7.2 °C 34361.1 hPa East 6 km/h 6 km/h 71 % 0 mm
20:57 -4.1 °C -7.3 °C 34361.1 hPa NNE 9 km/h 9 km/h 70 % 0 mm
21:02 -4.1 °C -7.2 °C 34361.1 hPa NE 9 km/h 9 km/h 71 % 0 mm
21:07 -4 °C -7.1 °C 34395 hPa ENE 6 km/h   71 % 0 mm
21:12 -4 °C -7.1 °C 34395 hPa East 11.9 km/h 11.9 km/h 71 % 0 mm
21:17 -4.1 °C -7.2 °C 34395 hPa ENE 11.9 km/h 11.9 km/h 71 % 0 mm
21:22 -4.1 °C -7.2 °C 34361.1 hPa NE 9 km/h 9 km/h 71 % 0 mm
21:27 -4.1 °C -7.2 °C 34361.1 hPa ENE 9 km/h 9 km/h 71 % 0 mm
21:32 -4.2 °C -7.2 °C 34361.1 hPa East 15 km/h 15 km/h 72 % 0 mm
21:37 -4.1 °C -7.2 °C 34395 hPa East 11.9 km/h 11.9 km/h 71 % 0 mm
21:42 -4.2 °C -7.2 °C 34395 hPa ESE 11.9 km/h 11.9 km/h 72 % 0 mm
21:47 -4.2 °C -7.1 °C 34395 hPa ESE 15 km/h 15 km/h 73 % 0 mm
21:52 -4.3 °C -7.1 °C 34361.1 hPa SE 15 km/h 15 km/h 73 % 0 mm
21:57 -4.2 °C -7.1 °C 34361.1 hPa East 9 km/h 9 km/h 73 % 0 mm
22:02 -4.2 °C -7.1 °C 34361.1 hPa ESE 9 km/h 9 km/h 73 % 0 mm
22:07 -4.2 °C -7.1 °C 34395 hPa ESE 9 km/h 9 km/h 73 % 0 mm
22:12 -4.3 °C -7.1 °C 34395 hPa SE 9 km/h 9 km/h 73 % 0 mm
22:17 -4.3 °C -7.1 °C 34395 hPa ESE 9 km/h 9 km/h 73 % 0 mm
22:22 -4.2 °C -7.1 °C 34395 hPa SE 9 km/h 9 km/h 73 % 0 mm
22:27 -4.2 °C -7.1 °C 34395 hPa ENE 9 km/h 9 km/h 73 % 0 mm
22:32 -4.3 °C -7.1 °C 34395 hPa SE 9 km/h 9 km/h 73 % 0 mm
22:37 -4.3 °C -7.1 °C 34395 hPa ESE 9 km/h 9 km/h 73 % 0 mm
22:42 -4.2 °C -7.1 °C 34395 hPa East 8.5 km/h 8.5 km/h 73 % 0 mm
22:47 -4.2 °C -7.1 °C 34395 hPa East 6.3 km/h 6.3 km/h 73 % 0 mm
22:52 -4.2 °C -7.1 °C 34428.8 hPa NE 6 km/h 6 km/h 73 % 0 mm
22:57 -4.3 °C -7 °C 34428.8 hPa ENE 9 km/h 9 km/h 74 % 0 mm
23:02 -4.2 °C -7 °C 34428.8 hPa ESE 6 km/h 8 km/h 74 % 0 mm
23:07 -4.3 °C -7.1 °C 34428.8 hPa ESE 8.5 km/h 8.5 km/h 73 % 0 mm
23:12 -4.3 °C -7 °C 34428.8 hPa ESE 6 km/h 6 km/h 74 % 0 mm
23:17 -4.3 °C -7.1 °C 34428.8 hPa East 4.2 km/h 4.2 km/h 73 % 0 mm
23:22 -4.3 °C -7 °C 34428.8 hPa ESE 3.1 km/h 3.1 km/h 74 % 0 mm
23:27 -4.3 °C -7.1 °C 34428.8 hPa WSW 6 km/h 6 km/h 73 % 0 mm
23:32 -4.3 °C -7.1 °C 34428.8 hPa SW 6 km/h 6 km/h 73 % 0 mm
23:37 -4.3 °C -7.1 °C 34428.8 hPa Calm     73 % 0 mm
23:42 -4.2 °C -7.1 °C 34428.8 hPa WSW 6 km/h 6 km/h 73 % 0 mm
23:47 -4.2 °C -7.1 °C 34428.8 hPa WSW 6 km/h 6 km/h 73 % 0 mm
23:52 -4.2 °C -7.1 °C 34462.7 hPa West 6 km/h 6 km/h 73 % 0 mm
23:57 -4.2 °C -7.1 °C 34462.7 hPa WSW 6 km/h 6 km/h 73 % 0 mm
23:59 -4.2 °C -7.1 °C 34462.7 hPa WSW 6.8 km/h 6.8 km/h 73 % 0 mm
Meteo Sesrovires
Elogis d' Weather Underground - 1.5 mb

Guio original per  Jim McMurry - jmcmurry@mwt.net Adaptat per a la plantilla per  Wim van der Kuil - Leuven-Template.eu

Trobareu la nostra informacio del temps tambe a:

Weather Underground

AWEKAS